Bayle, Illinois
Current Conditions -  °F | °C
As of 10:15 AM on Saturday 25 Oct 2014 (Local Time) from K1H2 Reporting Station
Clear Clear  
Wind Chill: 67°   Ceiling: Unl
Heat Index: 67°   Visibility: 7mi
Dew Point: 56°   Wind: 7mph
Humidity: 68%   Direction: 310°NW
Pressure: 30.03"   Gusts: NA
Location:  39.1031°N, 89.1042°W
Report Text: K1H2 251515Z AUTO 31006KT 7SM CLR 20/14 A3003 RMK AO2 T01960136
Loading
Personal Weather Stations






























Interactive Weather Map
Tropical Storm Tracking
New forecast layout! Learn more

10-Day Weather Forecast

Advertisements
Track Severe Weather on mobile